Time,TemperatureF,DewpointF,PressureIn,WindDirection,WindDirectionDegrees,WindSpeedMPH,WindSpeedGustMPH,Humidity,HourlyPrecipIn,Conditions,Clouds,dailyrainin,SolarRadiationWatts/m^2,SoftwareType,DateUTC
2013-06-08 00:02:00,62.0,23.0,-100.00,SE,141,0.0,8.0,22,0.00,,,0.00,0.000000,,2013-06-08 06:02:00,
2013-06-08 00:12:00,62.0,23.0,-100.00,SE,141,0.0,8.0,22,0.00,,,0.00,0.000000,,2013-06-08 06:12:00,
2013-06-08 00:22:00,62.0,23.0,-100.00,SE,141,0.0,8.0,22,0.00,,,0.00,0.000000,,2013-06-08 06:22:00,
2013-06-08 00:32:00,62.0,23.0,-100.00,SE,141,0.0,8.0,22,0.00,,,0.00,0.000000,,2013-06-08 06:32:00,
2013-06-08 00:40:00,61.0,23.0,-100.00,NNE,33,1.0,3.0,23,0.00,,,0.00,0.000000,,2013-06-08 06:40:00,
2013-06-08 01:02:00,61.0,23.0,-100.00,NNE,33,1.0,3.0,23,0.00,,,0.00,0.000000,,2013-06-08 07:02:00,
2013-06-08 01:12:00,61.0,23.0,-100.00,NNE,33,1.0,3.0,23,0.00,,,0.00,0.000000,,2013-06-08 07:12:00,
2013-06-08 01:22:00,61.0,23.0,-100.00,NNE,33,1.0,3.0,23,0.00,,,0.00,0.000000,,2013-06-08 07:22:00,
2013-06-08 01:32:00,61.0,23.0,-100.00,NNE,33,1.0,3.0,23,0.00,,,0.00,0.000000,,2013-06-08 07:32:00,
2013-06-08 02:02:00,62.0,24.0,-100.00,ENE,71,0.0,6.0,23,0.00,,,0.00,0.000000,,2013-06-08 08:02:00,
2013-06-08 02:12:00,62.0,24.0,-100.00,ENE,71,0.0,6.0,23,0.00,,,0.00,0.000000,,2013-06-08 08:12:00,
2013-06-08 02:22:00,62.0,24.0,-100.00,ENE,71,0.0,6.0,23,0.00,,,0.00,0.000000,,2013-06-08 08:22:00,
2013-06-08 02:32:00,62.0,24.0,-100.00,ENE,71,0.0,6.0,23,0.00,,,0.00,0.000000,,2013-06-08 08:32:00,
2013-06-08 03:02:00,60.0,24.0,-100.00,ESE,117,1.0,3.0,25,-99.99,,,-99.99,0.000000,,2013-06-08 09:02:00,
2013-06-08 03:12:00,60.0,24.0,-100.00,ESE,117,1.0,3.0,25,-99.99,,,-99.99,0.000000,,2013-06-08 09:12:00,
2013-06-08 03:22:00,60.0,24.0,-100.00,ESE,117,1.0,3.0,25,-99.99,,,-99.99,0.000000,,2013-06-08 09:22:00,
2013-06-08 03:33:00,60.0,24.0,-100.00,ESE,117,1.0,3.0,25,-99.99,,,-99.99,0.000000,,2013-06-08 09:33:00,
2013-06-08 03:40:00,58.0,24.0,-100.00,South,173,0.0,0.0,27,0.00,,,0.00,0.000000,,2013-06-08 09:40:00,
2013-06-08 04:02:00,58.0,24.0,-100.00,South,173,0.0,0.0,27,0.00,,,0.00,0.000000,,2013-06-08 10:02:00,
2013-06-08 04:12:00,58.0,24.0,-100.00,South,173,0.0,0.0,27,0.00,,,0.00,0.000000,,2013-06-08 10:12:00,
2013-06-08 04:22:00,58.0,24.0,-100.00,South,173,0.0,0.0,27,0.00,,,0.00,0.000000,,2013-06-08 10:22:00,
2013-06-08 04:33:00,58.0,24.0,-100.00,South,173,0.0,0.0,27,0.00,,,0.00,0.000000,,2013-06-08 10:33:00,
2013-06-08 05:02:00,58.0,25.0,-100.00,NNW,345,3.0,5.0,28,0.00,,,0.00,0.000000,,2013-06-08 11:02:00,
2013-06-08 05:12:00,58.0,25.0,-100.00,NNW,345,3.0,5.0,28,0.00,,,0.00,0.000000,,2013-06-08 11:12:00,
2013-06-08 05:22:00,58.0,25.0,-100.00,NNW,345,3.0,5.0,28,0.00,,,0.00,0.000000,,2013-06-08 11:22:00,
2013-06-08 05:32:00,58.0,25.0,-100.00,NNW,345,3.0,5.0,28,0.00,,,0.00,0.000000,,2013-06-08 11:32:00,
2013-06-08 06:02:00,58.0,25.0,-100.00,NNW,333,3.0,5.0,28,0.00,,,0.00,0.000000,,2013-06-08 12:02:00,
2013-06-08 06:12:00,58.0,25.0,-100.00,NNW,333,3.0,5.0,28,0.00,,,0.00,0.000000,,2013-06-08 12:12:00,
2013-06-08 06:22:00,58.0,25.0,-100.00,NNW,333,3.0,5.0,28,0.00,,,0.00,0.000000,,2013-06-08 12:22:00,
2013-06-08 06:32:00,58.0,25.0,-100.00,NNW,333,3.0,5.0,28,0.00,,,0.00,0.000000,,2013-06-08 12:32:00,
2013-06-08 06:40:00,59.0,27.0,-100.00,NNW,346,6.0,9.0,29,-99.99,,,0.00,11.000000,,2013-06-08 12:40:00,
2013-06-08 07:02:00,59.0,27.0,-100.00,NNW,346,6.0,9.0,29,-99.99,,,0.00,11.000000,,2013-06-08 13:02:00,
2013-06-08 07:12:00,59.0,27.0,-100.00,NNW,346,6.0,9.0,29,-99.99,,,0.00,11.000000,,2013-06-08 13:12:00,
2013-06-08 07:22:00,59.0,27.0,-100.00,NNW,346,6.0,9.0,29,-99.99,,,0.00,11.000000,,2013-06-08 13:22:00,
2013-06-08 07:32:00,59.0,27.0,-100.00,NNW,346,6.0,9.0,29,-99.99,,,0.00,11.000000,,2013-06-08 13:32:00,
2013-06-08 07:40:00,63.0,30.0,-100.00,North,351,5.0,10.0,29,0.00,,,0.00,150.000000,,2013-06-08 13:40:00,
2013-06-08 08:02:00,63.0,30.0,-100.00,North,351,5.0,10.0,29,0.00,,,0.00,150.000000,,2013-06-08 14:02:00,
2013-06-08 08:12:00,63.0,30.0,-100.00,North,351,5.0,10.0,29,0.00,,,0.00,150.000000,,2013-06-08 14:12:00,
2013-06-08 08:22:00,63.0,30.0,-100.00,North,351,5.0,10.0,29,0.00,,,0.00,150.000000,,2013-06-08 14:22:00,
2013-06-08 08:32:00,63.0,30.0,-100.00,North,351,5.0,10.0,29,0.00,,,0.00,150.000000,,2013-06-08 14:32:00,
2013-06-08 08:40:00,66.0,32.0,-100.00,North,350,4.0,8.0,28,0.00,,,0.00,399.000000,,2013-06-08 14:40:00,
2013-06-08 09:02:00,66.0,32.0,-100.00,North,350,4.0,8.0,28,0.00,,,0.00,399.000000,,2013-06-08 15:02:00,
2013-06-08 09:12:00,66.0,32.0,-100.00,North,350,4.0,8.0,28,0.00,,,0.00,399.000000,,2013-06-08 15:12:00,
2013-06-08 09:22:00,66.0,32.0,-100.00,North,350,4.0,8.0,28,0.00,,,0.00,399.000000,,2013-06-08 15:22:00,
2013-06-08 09:32:00,66.0,32.0,-100.00,North,350,4.0,8.0,28,0.00,,,0.00,399.000000,,2013-06-08 15:32:00,
2013-06-08 09:40:00,69.0,33.0,-100.00,NW,314,6.0,13.0,26,0.00,,,0.00,636.000000,,2013-06-08 15:40:00,
2013-06-08 10:03:00,69.0,33.0,-100.00,NW,314,6.0,13.0,26,0.00,,,0.00,636.000000,,2013-06-08 16:03:00,
2013-06-08 10:12:00,69.0,33.0,-100.00,NW,314,6.0,13.0,26,0.00,,,0.00,636.000000,,2013-06-08 16:12:00,
2013-06-08 10:23:00,69.0,33.0,-100.00,NW,314,6.0,13.0,26,0.00,,,0.00,636.000000,,2013-06-08 16:23:00,
2013-06-08 10:32:00,69.0,33.0,-100.00,NW,314,6.0,13.0,26,0.00,,,0.00,636.000000,,2013-06-08 16:32:00,
2013-06-08 10:40:00,72.0,33.0,-100.00,NW,310,9.0,20.0,24,0.00,,,0.00,848.000000,,2013-06-08 16:40:00,
2013-06-08 11:02:00,72.0,33.0,-100.00,NW,310,9.0,20.0,24,0.00,,,0.00,848.000000,,2013-06-08 17:02:00,
2013-06-08 11:12:00,72.0,33.0,-100.00,NW,310,9.0,20.0,24,0.00,,,0.00,848.000000,,2013-06-08 17:12:00,
2013-06-08 11:22:00,72.0,33.0,-100.00,NW,310,9.0,20.0,24,0.00,,,0.00,848.000000,,2013-06-08 17:22:00,
2013-06-08 11:32:00,72.0,33.0,-100.00,NW,310,9.0,20.0,24,0.00,,,0.00,848.000000,,2013-06-08 17:32:00,
2013-06-08 11:40:00,75.0,30.0,-100.00,NW,324,13.0,25.0,19,0.00,,,0.00,1021.000000,,2013-06-08 17:40:00,
2013-06-08 12:02:00,75.0,30.0,-100.00,NW,324,13.0,25.0,19,0.00,,,0.00,1021.000000,,2013-06-08 18:02:00,
2013-06-08 12:12:00,75.0,30.0,-100.00,NW,324,13.0,25.0,19,0.00,,,0.00,1021.000000,,2013-06-08 18:12:00,
2013-06-08 12:22:00,75.0,30.0,-100.00,NW,324,13.0,25.0,19,0.00,,,0.00,1021.000000,,2013-06-08 18:22:00,
2013-06-08 12:32:00,75.0,30.0,-100.00,NW,324,13.0,25.0,19,0.00,,,0.00,1021.000000,,2013-06-08 18:32:00,
2013-06-08 12:40:00,78.0,28.0,-100.00,NNW,330,12.0,28.0,16,0.00,,,0.00,1143.000000,,2013-06-08 18:40:00,
2013-06-08 13:02:00,78.0,28.0,-100.00,NNW,330,12.0,28.0,16,0.00,,,0.00,1143.000000,,2013-06-08 19:02:00,
2013-06-08 13:12:00,78.0,28.0,-100.00,NNW,330,12.0,28.0,16,0.00,,,0.00,1143.000000,,2013-06-08 19:12:00,
2013-06-08 13:22:00,78.0,28.0,-100.00,NNW,330,12.0,28.0,16,0.00,,,0.00,1143.000000,,2013-06-08 19:22:00,
2013-06-08 13:32:00,78.0,28.0,-100.00,NNW,330,12.0,28.0,16,0.00,,,0.00,1143.000000,,2013-06-08 19:32:00,
2013-06-08 13:40:00,79.0,27.0,-100.00,NW,323,12.0,27.0,15,0.00,,,0.00,1202.000000,,2013-06-08 19:40:00,
2013-06-08 14:02:00,79.0,27.0,-100.00,NW,323,12.0,27.0,15,0.00,,,0.00,1202.000000,,2013-06-08 20:02:00,
2013-06-08 14:12:00,79.0,27.0,-100.00,NW,323,12.0,27.0,15,0.00,,,0.00,1202.000000,,2013-06-08 20:12:00,
2013-06-08 14:22:00,79.0,27.0,-100.00,NW,323,12.0,27.0,15,0.00,,,0.00,1202.000000,,2013-06-08 20:22:00,
2013-06-08 14:32:00,79.0,27.0,-100.00,NW,323,12.0,27.0,15,0.00,,,0.00,1202.000000,,2013-06-08 20:32:00,
2013-06-08 14:40:00,80.0,25.0,-100.00,NNW,327,15.0,28.0,13,0.00,,,0.00,1197.000000,,2013-06-08 20:40:00,
2013-06-08 15:02:00,80.0,25.0,-100.00,NNW,327,15.0,28.0,13,0.00,,,0.00,1197.000000,,2013-06-08 21:02:00,
2013-06-08 15:12:00,80.0,25.0,-100.00,NNW,327,15.0,28.0,13,0.00,,,0.00,1197.000000,,2013-06-08 21:12:00,
2013-06-08 15:22:00,80.0,25.0,-100.00,NNW,327,15.0,28.0,13,0.00,,,0.00,1197.000000,,2013-06-08 21:22:00,
2013-06-08 15:33:00,80.0,25.0,-100.00,NNW,327,15.0,28.0,13,0.00,,,0.00,1197.000000,,2013-06-08 21:33:00,
2013-06-08 15:40:00,81.0,24.0,-100.00,NNW,333,13.0,26.0,12,0.00,,,0.00,1128.000000,,2013-06-08 21:40:00,
2013-06-08 16:02:00,81.0,24.0,-100.00,NNW,333,13.0,26.0,12,0.00,,,0.00,1128.000000,,2013-06-08 22:02:00,
2013-06-08 16:12:00,81.0,24.0,-100.00,NNW,333,13.0,26.0,12,0.00,,,0.00,1128.000000,,2013-06-08 22:12:00,
2013-06-08 16:22:00,81.0,24.0,-100.00,NNW,333,13.0,26.0,12,0.00,,,0.00,1128.000000,,2013-06-08 22:22:00,
2013-06-08 16:33:00,81.0,24.0,-100.00,NNW,333,13.0,26.0,12,0.00,,,0.00,1128.000000,,2013-06-08 22:33:00,
2013-06-08 16:40:00,82.0,22.0,-100.00,NW,307,11.0,29.0,11,0.00,,,0.00,994.000000,,2013-06-08 22:40:00,
2013-06-08 17:02:00,82.0,22.0,-100.00,NW,307,11.0,29.0,11,0.00,,,0.00,994.000000,,2013-06-08 23:02:00,
2013-06-08 17:12:00,82.0,22.0,-100.00,NW,307,11.0,29.0,11,0.00,,,0.00,994.000000,,2013-06-08 23:12:00,
2013-06-08 17:22:00,82.0,22.0,-100.00,NW,307,11.0,29.0,11,0.00,,,0.00,994.000000,,2013-06-08 23:22:00,
2013-06-08 17:32:00,82.0,22.0,-100.00,NW,307,11.0,29.0,11,0.00,,,0.00,994.000000,,2013-06-08 23:32:00,
2013-06-08 17:40:00,81.0,19.0,-100.00,NW,323,12.0,28.0,10,0.00,,,0.00,802.000000,,2013-06-08 23:40:00,
2013-06-08 18:02:00,81.0,19.0,-100.00,NW,323,12.0,28.0,10,0.00,,,0.00,802.000000,,2013-06-09 00:02:00,
2013-06-08 18:12:00,81.0,19.0,-100.00,NW,323,12.0,28.0,10,0.00,,,0.00,802.000000,,2013-06-09 00:12:00,
2013-06-08 18:22:00,81.0,19.0,-100.00,NW,323,12.0,28.0,10,0.00,,,0.00,802.000000,,2013-06-09 00:22:00,
2013-06-08 18:32:00,81.0,19.0,-100.00,NW,323,12.0,28.0,10,0.00,,,0.00,802.000000,,2013-06-09 00:32:00,
2013-06-08 18:40:00,80.0,19.0,-100.00,NW,310,9.0,26.0,10,0.00,,,0.00,575.000000,,2013-06-09 00:40:00,
2013-06-08 19:02:00,80.0,19.0,-100.00,NW,310,9.0,26.0,10,0.00,,,0.00,575.000000,,2013-06-09 01:02:00,
2013-06-08 19:12:00,80.0,19.0,-100.00,NW,310,9.0,26.0,10,0.00,,,0.00,575.000000,,2013-06-09 01:12:00,
2013-06-08 19:22:00,80.0,19.0,-100.00,NW,310,9.0,26.0,10,0.00,,,0.00,575.000000,,2013-06-09 01:22:00,
2013-06-08 19:32:00,80.0,19.0,-100.00,NW,310,9.0,26.0,10,0.00,,,0.00,575.000000,,2013-06-09 01:32:00,
2013-06-08 19:40:00,78.0,19.0,-100.00,NNW,332,11.0,26.0,11,0.00,,,0.00,332.000000,,2013-06-09 01:40:00,
2013-06-08 20:02:00,78.0,19.0,-100.00,NNW,332,11.0,26.0,11,0.00,,,0.00,332.000000,,2013-06-09 02:02:00,
2013-06-08 20:12:00,78.0,19.0,-100.00,NNW,332,11.0,26.0,11,0.00,,,0.00,332.000000,,2013-06-09 02:12:00,
2013-06-08 20:22:00,78.0,19.0,-100.00,NNW,332,11.0,26.0,11,0.00,,,0.00,332.000000,,2013-06-09 02:22:00,
2013-06-08 20:32:00,78.0,19.0,-100.00,NNW,332,11.0,26.0,11,0.00,,,0.00,332.000000,,2013-06-09 02:32:00,
2013-06-08 20:40:00,73.0,21.0,-100.00,NNW,330,8.0,23.0,14,0.00,,,0.00,69.000000,,2013-06-09 02:40:00,
2013-06-08 21:02:00,73.0,21.0,-100.00,NNW,330,8.0,23.0,14,0.00,,,0.00,69.000000,,2013-06-09 03:02:00,
2013-06-08 21:12:00,73.0,21.0,-100.00,NNW,330,8.0,23.0,14,0.00,,,0.00,69.000000,,2013-06-09 03:12:00,
2013-06-08 21:22:00,73.0,21.0,-100.00,NNW,330,8.0,23.0,14,0.00,,,0.00,69.000000,,2013-06-09 03:22:00,
2013-06-08 21:32:00,73.0,21.0,-100.00,NNW,330,8.0,23.0,14,0.00,,,0.00,69.000000,,2013-06-09 03:32:00,
2013-06-08 21:40:00,70.0,20.0,-100.00,NNW,346,6.0,16.0,15,0.00,,,0.00,0.000000,,2013-06-09 03:40:00,
2013-06-08 22:02:00,70.0,20.0,-100.00,NNW,346,6.0,16.0,15,0.00,,,0.00,0.000000,,2013-06-09 04:02:00,
2013-06-08 22:12:00,70.0,20.0,-100.00,NNW,346,6.0,16.0,15,0.00,,,0.00,0.000000,,2013-06-09 04:12:00,
2013-06-08 22:22:00,70.0,20.0,-100.00,NNW,346,6.0,16.0,15,0.00,,,0.00,0.000000,,2013-06-09 04:22:00,
2013-06-08 22:32:00,70.0,20.0,-100.00,NNW,346,6.0,16.0,15,0.00,,,0.00,0.000000,,2013-06-09 04:32:00,
2013-06-08 22:40:00,69.0,19.0,-100.00,NNW,342,5.0,11.0,15,0.00,,,0.00,0.000000,,2013-06-09 04:40:00,
2013-06-08 23:02:00,69.0,19.0,-100.00,NNW,342,5.0,11.0,15,0.00,,,0.00,0.000000,,2013-06-09 05:02:00,
2013-06-08 23:12:00,69.0,19.0,-100.00,NNW,342,5.0,11.0,15,0.00,,,0.00,0.000000,,2013-06-09 05:12:00,
2013-06-08 23:22:00,69.0,19.0,-100.00,NNW,342,5.0,11.0,15,0.00,,,0.00,0.000000,,2013-06-09 05:22:00,
2013-06-08 23:32:00,69.0,19.0,-100.00,NNW,342,5.0,11.0,15,0.00,,,0.00,0.000000,,2013-06-09 05:32:00,
2013-06-08 23:40:00,67.0,19.0,-100.00,North,9,6.0,15.0,16,0.00,,,0.00,0.000000,,2013-06-09 05:40:00,